Time;durP1;ratioP1;P1;durP2;ratioP2;P2;SDS_P1;SDS_P2;PMS_P1;PMS_P2;Temp;Humidity;BMP_temperature;BMP_pressure;BME280_temperature;BME280_humidity;BME280_pressure;Samples;Min_cycle;Max_cycle;Signal;HPM_P1;HPM_P2
2023/09/23 00:02:09;;;;;;;3.40;1.38;;;;;;;13.37;78.24;97911.66;5005579;28;20165;-75
2023/09/23 00:04:35;;;;;;;1.63;1.50;;;;;;;13.39;78.24;97926.34;5024657;28;20026;-76
2023/09/23 00:07:01;;;;;;;4.45;1.35;;;;;;;13.28;78.16;97922.22;5022490;28;20029;-75
2023/09/23 00:09:28;;;;;;;1.65;1.35;;;;;;;13.35;78.45;97933.38;5025692;28;20659;-75
2023/09/23 00:11:54;;;;;;;1.67;1.30;;;;;;;13.34;78.57;97939.03;5026482;28;20069;-75
2023/09/23 00:14:19;;;;;;;3.65;1.23;;;;;;;13.36;78.19;97932.31;5027261;28;20195;-75
2023/09/23 00:16:46;;;;;;;1.27;1.13;;;;;;;13.37;78.26;97946.50;5015844;28;20076;-75
2023/09/23 00:19:12;;;;;;;3.47;1.40;;;;;;;13.36;78.31;97937.69;5017494;28;20094;-75
2023/09/23 00:21:38;;;;;;;2.72;1.55;;;;;;;13.37;78.41;97958.00;5015717;28;20482;-75
2023/09/23 00:24:05;;;;;;;3.50;1.52;;;;;;;13.14;79.19;97950.00;5021548;28;20390;-75
2023/09/23 00:26:32;;;;;;;2.40;1.70;;;;;;;13.38;78.75;97946.22;5022047;28;20034;-74
2023/09/23 00:28:58;;;;;;;2.70;1.58;;;;;;;13.48;78.47;97951.44;5023452;28;20123;-77
2023/09/23 00:31:24;;;;;;;3.95;2.10;;;;;;;13.48;78.42;97958.69;5020752;28;20040;-80
2023/09/23 00:33:50;;;;;;;5.57;1.88;;;;;;;13.48;78.49;97958.69;4997649;28;20084;-74
2023/09/23 00:36:15;;;;;;;2.05;1.65;;;;;;;13.43;78.40;97964.91;5016350;28;20034;-74
2023/09/23 00:38:41;;;;;;;3.63;1.75;;;;;;;13.43;78.46;97956.84;5025724;28;20080;-75
2023/09/23 00:41:06;;;;;;;4.35;1.50;;;;;;;13.41;78.46;97955.56;5023341;28;20017;-75
2023/09/23 00:43:33;;;;;;;4.43;1.48;;;;;;;13.45;78.69;97953.91;5026856;28;20567;-74
2023/09/23 00:46:00;;;;;;;1.40;1.30;;;;;;;13.39;78.59;97969.25;5010423;28;20056;-75
2023/09/23 00:48:26;;;;;;;2.97;1.48;;;;;;;13.49;78.21;97965.66;5023967;28;20037;-74
2023/09/23 00:50:54;;;;;;;4.07;1.63;;;;;;;13.36;78.45;97966.34;5023777;28;20026;-75
2023/09/23 00:53:21;;;;;;;2.45;1.92;;;;;;;13.40;78.79;97964.69;5023999;28;20033;-74
2023/09/23 00:55:52;;;;;;;4.97;1.80;;;;;;;13.41;78.25;97963.63;5011647;28;20121;-75
2023/09/23 00:58:21;;;;;;;2.35;1.55;;;;;;;13.37;78.20;97967.94;5029696;28;20033;-75
2023/09/23 01:00:48;;;;;;;3.45;1.60;;;;;;;13.35;78.44;97976.28;5026187;28;20033;-75
2023/09/23 01:03:15;;;;;;;3.03;1.65;;;;;;;13.37;78.30;97974.09;5027441;28;20037;-74
2023/09/23 01:05:41;;;;;;;2.33;1.33;;;;;;;13.28;78.49;97967.00;5030102;28;20497;-75
2023/09/23 01:08:22;;;;;;;3.35;2.15;;;;;;;13.45;77.65;97967.31;5028068;28;20038;-75
2023/09/23 01:10:48;;;;;;;2.40;1.40;;;;;;;13.53;77.47;97975.50;5027043;28;20033;-75
2023/09/23 01:13:14;;;;;;;4.25;1.65;;;;;;;13.29;78.03;97971.25;5028780;28;20381;-75
2023/09/23 01:15:40;;;;;;;3.90;1.40;;;;;;;13.45;77.34;97975.34;5028423;28;21581;-75
2023/09/23 01:18:09;;;;;;;4.40;2.20;;;;;;;13.33;77.72;97981.13;5024605;28;20053;-75
2023/09/23 01:20:36;;;;;;;6.07;1.92;;;;;;;13.18;77.95;97981.31;5022341;28;20029;-75
2023/09/23 01:23:04;;;;;;;4.53;1.77;;;;;;;13.24;77.84;97987.38;5024757;28;20060;-76
2023/09/23 01:25:29;;;;;;;2.92;2.15;;;;;;;13.29;77.42;97980.09;5007019;28;20168;-75
2023/09/23 01:27:55;;;;;;;4.47;1.60;;;;;;;13.03;78.41;97984.13;5023458;28;20116;-74
2023/09/23 01:30:21;;;;;;;4.60;1.83;;;;;;;13.16;77.71;97994.19;5023558;28;20160;-75
2023/09/23 01:32:51;;;;;;;3.67;2.00;;;;;;;13.12;77.89;97989.69;5024624;28;20083;-75
2023/09/23 01:35:17;;;;;;;3.67;2.15;;;;;;;13.03;78.30;97991.38;5026636;28;20025;-75
2023/09/23 01:37:47;;;;;;;2.25;2.03;;;;;;;12.97;78.58;97993.31;5023470;28;20095;-74
2023/09/23 01:40:17;;;;;;;1.92;1.83;;;;;;;13.17;78.00;97995.78;5021824;28;20029;-74
2023/09/23 01:42:51;;;;;;;1.85;1.60;;;;;;;13.24;77.72;98004.28;5022267;28;21339;-74
2023/09/23 01:45:19;;;;;;;5.03;2.08;;;;;;;13.06;78.01;97991.59;5024084;28;20069;-75
2023/09/23 01:47:45;;;;;;;2.67;2.38;;;;;;;13.08;78.26;97997.50;5022913;28;20030;-75
2023/09/23 01:50:11;;;;;;;4.15;1.73;;;;;;;13.12;77.96;97998.53;5028513;28;20026;-75
2023/09/23 01:52:37;;;;;;;4.63;2.30;;;;;;;13.11;78.11;98004.16;5029961;28;20095;-74
2023/09/23 01:55:05;;;;;;;2.85;2.13;;;;;;;12.97;78.24;98009.38;5026946;28;20037;-75
2023/09/23 01:57:33;;;;;;;4.35;2.00;;;;;;;12.84;79.02;98003.91;5029780;28;20056;-76
2023/09/23 01:59:59;;;;;;;3.75;2.20;;;;;;;12.91;78.65;97999.78;5027006;28;20423;-75
2023/09/23 02:02:26;;;;;;;3.20;1.90;;;;;;;12.82;79.32;98006.84;5030557;28;20075;-75
2023/09/23 02:04:52;;;;;;;3.75;1.67;;;;;;;12.93;78.86;98007.56;5008172;28;20038;-76
2023/09/23 02:07:17;;;;;;;2.25;2.05;;;;;;;12.97;78.64;98009.38;5008444;28;20030;-76
2023/09/23 02:09:42;;;;;;;3.63;1.92;;;;;;;13.04;78.69;98015.19;5026340;28;20038;-75
2023/09/23 02:12:07;;;;;;;3.53;1.92;;;;;;;13.06;78.52;98023.75;5027050;28;20029;-74
2023/09/23 02:14:33;;;;;;;4.03;2.38;;;;;;;12.85;79.01;98016.19;5028541;28;20029;-75
2023/09/23 02:16:58;;;;;;;4.38;2.28;;;;;;;12.83;79.11;98016.47;5027192;28;20120;-75
2023/09/23 02:19:25;;;;;;;4.57;2.30;;;;;;;12.99;78.54;98025.97;5008443;28;20057;-74
2023/09/23 02:21:51;;;;;;;2.80;2.20;;;;;;;12.89;78.63;98019.91;5028446;28;20068;-74
2023/09/23 02:24:20;;;;;;;5.57;3.00;;;;;;;12.99;78.45;98031.31;5026128;28;20113;-74
2023/09/23 02:26:46;;;;;;;2.88;1.90;;;;;;;12.83;78.74;98027.19;5029024;28;20040;-75
2023/09/23 02:29:15;;;;;;;3.15;2.10;;;;;;;12.77;79.08;98025.66;5028196;28;20402;-74
2023/09/23 02:31:48;;;;;;;4.45;2.13;;;;;;;12.91;78.91;98034.59;5025498;28;20029;-75
2023/09/23 02:34:18;;;;;;;2.47;1.90;;;;;;;12.90;78.87;98033.03;5027303;28;20025;-75
2023/09/23 02:36:47;;;;;;;4.38;1.80;;;;;;;12.86;79.06;98042.72;5023373;28;20040;-75
2023/09/23 02:39:17;;;;;;;2.08;1.90;;;;;;;12.91;78.88;98036.50;5026524;28;20060;-75
2023/09/23 02:41:51;;;;;;;3.20;2.03;;;;;;;12.84;79.03;98047.53;5025842;28;20462;-75
2023/09/23 02:44:19;;;;;;;2.55;1.83;;;;;;;13.02;78.40;98054.84;5028127;28;20026;-75
2023/09/23 02:46:48;;;;;;;2.58;1.92;;;;;;;13.03;78.17;98056.47;5027224;28;20033;-75
2023/09/23 02:49:14;;;;;;;3.22;1.58;;;;;;;12.83;78.66;98048.63;5027969;28;20025;-75
2023/09/23 02:51:41;;;;;;;7.95;2.10;;;;;;;12.68;79.08;98057.59;5028335;28;20128;-75
2023/09/23 02:54:08;;;;;;;5.85;1.98;;;;;;;13.01;78.12;98063.19;5026071;28;20104;-75
2023/09/23 02:56:34;;;;;;;2.17;1.75;;;;;;;12.60;79.27;98062.75;5028830;28;20052;-74
2023/09/23 02:59:00;;;;;;;1.75;1.33;;;;;;;13.05;78.07;98075.75;5028312;28;20040;-75
2023/09/23 03:01:27;;;;;;;2.85;1.50;;;;;;;12.98;78.56;98088.66;5026609;28;20032;-75
2023/09/23 03:03:55;;;;;;;1.60;1.50;;;;;;;12.99;78.17;98084.91;5026389;28;20025;-75
2023/09/23 03:06:21;;;;;;;3.90;1.67;;;;;;;12.96;78.07;98085.44;5029634;28;20108;-74
2023/09/23 03:08:48;;;;;;;3.53;1.40;;;;;;;13.09;77.48;98092.06;5026103;28;20375;-75
2023/09/23 03:11:18;;;;;;;1.48;1.38;;;;;;;12.94;78.27;98097.53;5025017;28;20033;-76
2023/09/23 03:13:44;;;;;;;2.15;1.67;;;;;;;12.82;78.55;98116.63;5026390;28;20032;-76
2023/09/23 03:16:12;;;;;;;2.15;1.60;;;;;;;12.99;77.73;98105.53;5025720;28;20025;-75
2023/09/23 03:21:45;;;;;;;4.10;1.70;;;;;;;12.93;78.02;98120.81;4967311;28;20503;-76
2023/09/23 03:24:11;;;;;;;2.72;2.20;;;;;;;12.89;77.68;98124.38;4966031;28;20063;-76
2023/09/23 03:26:37;;;;;;;4.35;2.08;;;;;;;13.09;77.38;98138.41;4993710;28;20068;-77
2023/09/23 03:29:06;;;;;;;3.45;2.63;;;;;;;12.73;78.80;98134.41;5008480;28;20065;-76
2023/09/23 03:31:31;;;;;;;1.95;1.60;;;;;;;13.04;77.88;98143.78;5010092;28;20033;-76
2023/09/23 03:33:57;;;;;;;3.38;2.22;;;;;;;12.98;78.31;98136.88;5026276;28;20755;-76
2023/09/23 03:36:24;;;;;;;2.90;1.92;;;;;;;12.85;78.73;98140.19;5011084;28;20048;-76
2023/09/23 03:38:51;;;;;;;3.22;1.70;;;;;;;12.83;78.47;98153.06;5007263;28;20120;-75
2023/09/23 03:41:17;;;;;;;2.05;1.58;;;;;;;12.74;79.04;98147.50;5023644;28;20029;-76
2023/09/23 03:43:42;;;;;;;3.03;1.60;;;;;;;12.98;78.17;98152.94;5026837;28;20041;-75
2023/09/23 03:46:16;;;;;;;2.80;1.60;;;;;;;13.10;77.67;98157.97;5023186;28;20033;-76
2023/09/23 03:48:43;;;;;;;1.65;1.50;;;;;;;12.85;78.52;98158.13;5027985;28;20029;-76
2023/09/23 03:51:09;;;;;;;2.35;1.67;;;;;;;12.93;78.07;98157.56;5009624;28;20033;-76
2023/09/23 03:53:35;;;;;;;3.97;1.98;;;;;;;12.63;79.05;98159.38;5025877;28;20060;-76
2023/09/23 03:56:01;;;;;;;3.88;1.85;;;;;;;12.74;78.80;98165.44;4991802;28;20160;-74
2023/09/23 03:58:27;;;;;;;3.72;1.70;;;;;;;12.53;79.32;98164.78;5025946;28;20113;-75
2023/09/23 04:00:56;;;;;;;2.67;1.85;;;;;;;12.77;78.75;98171.06;5010231;28;20698;-75
2023/09/23 04:03:21;;;;;;;2.05;1.85;;;;;;;12.76;78.99;98176.66;5026493;28;20029;-74
2023/09/23 04:06:00;;;;;;;1.67;1.58;;;;;;;12.80;78.55;98189.22;5025226;28;20578;-74
2023/09/23 04:08:26;;;;;;;1.65;1.55;;;;;;;12.84;78.26;98191.38;5023198;28;20107;-74
2023/09/23 04:10:51;;;;;;;2.75;1.80;;;;;;;12.95;78.08;98190.22;5025634;28;20486;-75
2023/09/23 04:13:17;;;;;;;2.10;1.90;;;;;;;12.82;78.27;98190.84;5025828;28;20057;-74
2023/09/23 04:15:43;;;;;;;2.17;1.63;;;;;;;12.93;78.20;98206.53;5022550;28;20033;-75
2023/09/23 04:18:09;;;;;;;1.67;1.58;;;;;;;12.91;78.37;98203.34;5027449;28;20486;-75
2023/09/23 04:20:36;;;;;;;1.73;1.63;;;;;;;12.77;78.60;98197.84;5008712;28;20041;-74
2023/09/23 04:23:02;;;;;;;2.05;1.92;;;;;;;12.84;78.32;98202.06;5024292;28;20033;-74
2023/09/23 04:25:27;;;;;;;2.63;1.80;;;;;;;12.79;78.05;98211.75;5008913;28;20406;-73
2023/09/23 04:27:53;;;;;;;2.20;2.00;;;;;;;12.75;78.39;98205.31;5013849;28;20045;-73
2023/09/23 04:30:18;;;;;;;2.63;2.05;;;;;;;12.78;78.29;98204.78;5010079;28;20051;-75
2023/09/23 04:32:44;;;;;;;2.72;1.98;;;;;;;12.90;77.55;98211.66;5030572;28;20056;-74
2023/09/23 04:35:12;;;;;;;3.78;1.90;;;;;;;12.99;77.35;98213.47;5029680;28;20103;-74
2023/09/23 04:37:39;;;;;;;1.80;1.70;;;;;;;12.89;77.34;98232.28;5028239;28;20040;-74
2023/09/23 04:40:09;;;;;;;2.58;1.70;;;;;;;12.87;77.37;98229.09;5033593;28;20429;-75
2023/09/23 04:42:35;;;;;;;3.38;1.98;;;;;;;12.82;77.55;98233.69;5029863;28;20029;-75
2023/09/23 04:45:00;;;;;;;1.90;1.60;;;;;;;12.74;77.90;98235.88;5027946;28;20612;-74
2023/09/23 04:47:26;;;;;;;2.05;1.65;;;;;;;12.91;77.10;98237.38;4999874;28;20141;-75
2023/09/23 04:49:53;;;;;;;4.68;1.67;;;;;;;12.96;76.56;98243.50;5030654;28;20047;-75
2023/09/23 04:52:19;;;;;;;4.05;2.13;;;;;;;12.67;76.87;98250.63;5014186;28;20044;-74
2023/09/23 04:54:44;;;;;;;2.47;2.28;;;;;;;12.98;76.73;98249.38;5032886;28;20029;-75
2023/09/23 04:57:10;;;;;;;2.03;1.48;;;;;;;12.96;76.55;98253.41;5026463;28;20509;-75
2023/09/23 04:59:35;;;;;;;2.03;1.83;;;;;;;13.01;76.32;98248.03;5030979;28;20034;-74
2023/09/23 05:02:00;;;;;;;3.45;2.10;;;;;;;12.98;76.66;98251.25;5012521;28;20371;-75
2023/09/23 05:04:26;;;;;;;2.67;2.47;;;;;;;12.96;76.31;98259.56;5011166;28;20071;-75
2023/09/23 05:06:51;;;;;;;2.22;2.03;;;;;;;12.71;77.20;98257.06;5008545;28;20119;-75
2023/09/23 05:09:16;;;;;;;2.30;2.20;;;;;;;12.78;76.39;98265.56;5027566;28;20076;-74
2023/09/23 05:11:42;;;;;;;2.65;2.45;;;;;;;12.76;77.14;98271.22;5026310;28;20037;-74
2023/09/23 05:14:07;;;;;;;3.45;2.78;;;;;;;12.65;77.15;98266.16;5001488;28;20049;-74
2023/09/23 05:16:33;;;;;;;3.50;2.60;;;;;;;12.77;76.82;98277.38;5020468;28;20117;-75
2023/09/23 05:18:59;;;;;;;3.33;3.00;;;;;;;12.51;77.65;98276.69;5024627;28;20124;-76
2023/09/23 05:21:24;;;;;;;3.33;3.03;;;;;;;12.55;77.05;98290.31;5023052;28;21046;-75
2023/09/23 05:23:51;;;;;;;3.15;2.90;;;;;;;12.41;77.98;98283.94;5022611;28;20490;-74
2023/09/23 05:26:16;;;;;;;4.50;3.05;;;;;;;12.48;77.34;98287.94;5021653;28;20041;-75
2023/09/23 05:28:44;;;;;;;3.30;3.00;;;;;;;12.62;77.25;98286.25;5022019;28;20045;-75
2023/09/23 05:31:13;;;;;;;4.28;3.40;;;;;;;12.74;76.63;98294.78;5023635;28;20678;-75
2023/09/23 05:33:39;;;;;;;3.60;3.30;;;;;;;12.41;77.46;98295.47;5024217;28;20754;-74
2023/09/23 05:36:04;;;;;;;4.07;2.83;;;;;;;12.60;77.50;98307.16;5022248;28;21231;-74
2023/09/23 05:38:29;;;;;;;4.38;3.03;;;;;;;12.73;76.59;98308.47;5027383;28;20489;-74
2023/09/23 05:40:55;;;;;;;3.08;2.75;;;;;;;12.38;77.38;98316.63;5028844;28;20029;-75
2023/09/23 05:43:20;;;;;;;3.88;2.72;;;;;;;12.16;78.34;98329.53;5028137;28;20029;-76
2023/09/23 05:45:46;;;;;;;4.07;3.67;;;;;;;11.96;79.66;98335.72;5011734;28;20037;-73
2023/09/23 05:48:11;;;;;;;3.60;3.30;;;;;;;12.24;79.08;98327.09;5025924;28;20120;-75
2023/09/23 05:50:37;;;;;;;2.85;2.63;;;;;;;12.23;78.65;98325.47;5011906;28;20037;-75
2023/09/23 05:53:02;;;;;;;2.95;2.75;;;;;;;12.49;78.03;98328.91;4995052;28;20073;-76
2023/09/23 05:55:30;;;;;;;3.00;2.63;;;;;;;12.39;78.43;98336.94;5027674;28;20064;-75
2023/09/23 05:57:56;;;;;;;3.83;2.58;;;;;;;12.51;77.58;98338.25;5029229;28;20055;-76
2023/09/23 06:00:21;;;;;;;2.95;2.42;;;;;;;12.50;78.13;98336.66;5009562;28;20026;-75
2023/09/23 06:02:47;;;;;;;2.97;2.70;;;;;;;12.64;77.23;98343.03;4995050;28;20728;-75
2023/09/23 06:05:14;;;;;;;3.65;2.20;;;;;;;12.54;77.06;98343.06;5029306;28;20294;-75
2023/09/23 06:07:40;;;;;;;2.10;2.00;;;;;;;12.74;77.11;98348.34;5025663;28;20037;-75
2023/09/23 06:10:06;;;;;;;6.05;2.38;;;;;;;12.45;78.25;98350.03;5027318;28;20041;-75
2023/09/23 06:12:35;;;;;;;2.22;2.03;;;;;;;12.59;77.18;98347.59;5029000;28;20064;-75
2023/09/23 06:15:01;;;;;;;1.95;1.80;;;;;;;12.64;77.34;98352.94;5030628;28;20037;-75
2023/09/23 06:17:28;;;;;;;2.25;2.08;;;;;;;12.38;78.23;98346.88;5025711;28;20034;-75
2023/09/23 06:19:56;;;;;;;3.03;2.72;;;;;;;12.30;78.63;98355.44;5029947;28;20034;-79
2023/09/23 06:22:22;;;;;;;3.90;2.75;;;;;;;12.36;78.56;98349.00;5021191;28;20033;-77
2023/09/23 06:24:51;;;;;;;2.05;1.85;;;;;;;12.37;78.37;98352.47;5030128;28;20029;-77
2023/09/23 06:27:17;;;;;;;2.60;2.30;;;;;;;12.41;78.28;98350.84;5030864;28;20029;-75
2023/09/23 06:29:44;;;;;;;3.60;2.42;;;;;;;12.51;77.71;98359.69;5030235;28;20033;-76
2023/09/23 06:32:09;;;;;;;3.25;2.47;;;;;;;12.41;77.91;98374.94;5029132;28;20103;-75
2023/09/23 06:34:34;;;;;;;2.67;2.42;;;;;;;12.50;77.54;98366.09;5020807;28;20033;-75
2023/09/23 06:37:00;;;;;;;3.30;2.00;;;;;;;12.31;78.24;98374.97;5028168;28;20087;-74
2023/09/23 06:39:25;;;;;;;3.15;2.13;;;;;;;12.42;78.12;98376.56;5027359;28;20992;-75
2023/09/23 06:41:51;;;;;;;3.00;2.30;;;;;;;12.49;77.73;98372.50;5011703;28;20061;-74
2023/09/23 06:44:16;;;;;;;3.42;2.85;;;;;;;12.50;77.98;98389.38;5027710;28;20083;-77
2023/09/23 06:46:41;;;;;;;4.15;2.50;;;;;;;12.32;78.42;98390.75;5010497;28;20037;-75
2023/09/23 06:49:07;;;;;;;2.83;2.53;;;;;;;12.60;77.50;98402.75;5026962;28;20038;-75
2023/09/23 06:51:32;;;;;;;3.28;3.03;;;;;;;12.49;77.44;98399.28;5029877;28;20042;-75
2023/09/23 06:53:57;;;;;;;2.70;2.35;;;;;;;12.52;77.82;98404.09;5028671;28;20042;-74
2023/09/23 06:56:23;;;;;;;6.72;2.80;;;;;;;12.43;77.96;98416.44;5012635;28;20033;-74
2023/09/23 06:58:48;;;;;;;3.72;3.13;;;;;;;12.49;77.64;98419.91;5014320;28;20421;-75
2023/09/23 07:01:14;;;;;;;5.43;3.72;;;;;;;12.44;78.20;98418.03;5024579;28;20028;-75
2023/09/23 07:03:40;;;;;;;4.30;3.88;;;;;;;12.50;78.21;98424.19;4998705;28;20038;-74
2023/09/23 07:06:06;;;;;;;3.78;3.30;;;;;;;12.47;78.72;98422.06;5020290;28;20056;-76
2023/09/23 07:08:31;;;;;;;7.85;4.03;;;;;;;12.52;78.25;98430.88;4973413;28;20069;-75
2023/09/23 07:10:56;;;;;;;4.75;3.63;;;;;;;12.43;78.45;98419.09;5023829;28;20593;-75
2023/09/23 07:13:22;;;;;;;5.45;4.20;;;;;;;12.71;77.57;98429.22;5017843;28;20021;-74
2023/09/23 07:15:47;;;;;;;3.78;3.38;;;;;;;12.72;77.54;98433.50;5017321;28;20033;-74
2023/09/23 07:18:14;;;;;;;4.85;3.45;;;;;;;12.57;77.83;98427.38;5019244;28;20029;-74
2023/09/23 07:20:39;;;;;;;7.90;3.80;;;;;;;12.62;77.59;98436.19;5001256;28;20025;-75
2023/09/23 07:23:05;;;;;;;4.75;3.35;;;;;;;12.76;77.37;98449.81;5018854;28;21402;-75
2023/09/23 07:25:37;;;;;;;4.32;3.20;;;;;;;12.65;77.69;98438.34;5021193;28;20124;-75
2023/09/23 07:28:03;;;;;;;4.30;3.00;;;;;;;12.67;77.93;98452.25;5021705;28;20029;-74
2023/09/23 07:30:35;;;;;;;4.47;3.15;;;;;;;12.71;77.45;98460.56;5017385;28;20509;-75
2023/09/23 07:33:00;;;;;;;4.72;3.00;;;;;;;12.67;77.87;98460.28;5018434;28;20504;-75
2023/09/23 07:35:31;;;;;;;5.28;3.10;;;;;;;12.54;79.13;98471.56;5023841;28;20045;-75
2023/09/23 07:37:56;;;;;;;3.80;2.88;;;;;;;12.85;77.63;98482.19;5026040;28;20029;-75
2023/09/23 07:40:22;;;;;;;3.00;2.80;;;;;;;12.69;78.53;98482.25;5023666;28;20041;-80
2023/09/23 07:42:47;;;;;;;4.07;2.08;;;;;;;12.93;77.43;98490.47;5026879;28;20021;-76
2023/09/23 07:45:12;;;;;;;2.80;2.60;;;;;;;12.75;78.76;98494.53;5009299;28;20048;-77
2023/09/23 07:47:38;;;;;;;3.35;2.80;;;;;;;12.80;78.24;98507.13;5026346;28;20083;-77
2023/09/23 07:50:04;;;;;;;4.32;2.42;;;;;;;12.79;78.28;98508.22;5025974;28;20060;-76
2023/09/23 07:52:32;;;;;;;4.72;2.47;;;;;;;12.92;77.67;98514.88;5027872;28;20498;-76
2023/09/23 07:54:57;;;;;;;3.22;2.33;;;;;;;13.05;77.06;98522.38;5027523;28;20040;-77
2023/09/23 07:57:24;;;;;;;3.50;1.90;;;;;;;13.01;77.48;98519.41;5026959;28;20033;-76
2023/09/23 07:59:49;;;;;;;4.15;1.95;;;;;;;12.97;77.80;98533.63;5024436;28;20097;-76
2023/09/23 08:02:15;;;;;;;2.30;1.80;;;;;;;13.09;77.47;98539.50;5004561;28;20109;-76
2023/09/23 08:04:40;;;;;;;6.03;2.53;;;;;;;13.12;77.23;98547.81;5023771;28;20041;-76
2023/09/23 08:07:06;;;;;;;4.53;2.15;;;;;;;13.19;76.98;98545.63;5019764;28;20025;-75
2023/09/23 08:09:32;;;;;;;3.20;2.28;;;;;;;13.05;77.68;98546.50;5019177;28;20026;-76
2023/09/23 08:11:58;;;;;;;3.38;2.35;;;;;;;13.22;76.47;98553.16;5002989;28;20077;-76
2023/09/23 08:14:24;;;;;;;3.25;2.30;;;;;;;13.08;76.55;98552.13;5011314;28;20105;-75
2023/09/23 08:16:50;;;;;;;5.30;1.67;;;;;;;13.23;76.22;98556.63;5016865;28;20033;-75
2023/09/23 08:19:16;;;;;;;4.85;2.20;;;;;;;13.23;76.93;98553.94;5023000;28;20179;-75
2023/09/23 08:21:42;;;;;;;3.97;2.10;;;;;;;13.31;76.53;98554.19;5026304;28;20104;-75
2023/09/23 08:24:07;;;;;;;8.00;2.08;;;;;;;13.33;77.08;98559.28;5024858;28;20044;-75
2023/09/23 08:26:33;;;;;;;2.45;1.30;;;;;;;13.37;76.90;98568.38;5022898;28;20483;-75
2023/09/23 08:28:58;;;;;;;3.67;1.90;;;;;;;13.45;76.07;98567.84;5018460;28;20036;-75
2023/09/23 08:31:24;;;;;;;2.42;1.88;;;;;;;13.32;77.16;98566.50;5022217;28;20139;-75
2023/09/23 08:33:49;;;;;;;2.97;2.10;;;;;;;13.39;75.55;98574.25;5022062;28;20132;-75
2023/09/23 08:36:14;;;;;;;3.60;2.03;;;;;;;13.35;75.91;98560.59;5024975;28;20492;-75
2023/09/23 08:38:41;;;;;;;3.80;2.03;;;;;;;13.41;75.75;98572.13;5022305;28;20030;-75
2023/09/23 08:41:06;;;;;;;4.50;1.70;;;;;;;13.31;75.91;98577.50;5024128;28;20029;-75
2023/09/23 08:43:39;;;;;;;3.05;1.67;;;;;;;13.44;75.59;98579.63;5029066;28;20107;-75
2023/09/23 08:46:05;;;;;;;3.35;1.60;;;;;;;13.42;75.18;98585.25;5025657;28;20543;-75
2023/09/23 08:48:32;;;;;;;4.45;1.98;;;;;;;13.40;75.61;98583.91;5025577;28;20065;-75
2023/09/23 08:50:59;;;;;;;4.63;1.83;;;;;;;13.37;75.69;98587.94;5023825;28;20033;-76
2023/09/23 08:53:27;;;;;;;5.20;1.98;;;;;;;13.38;75.79;98584.19;5010309;28;20031;-76
2023/09/23 08:55:53;;;;;;;5.13;1.70;;;;;;;13.44;75.81;98593.84;5001476;28;20079;-75
2023/09/23 08:58:19;;;;;;;3.53;1.70;;;;;;;13.43;75.64;98592.22;5002562;28;20045;-75
2023/09/23 09:00:46;;;;;;;3.42;1.55;;;;;;;13.46;75.94;98586.31;5021444;28;20018;-75
2023/09/23 09:03:14;;;;;;;4.38;1.35;;;;;;;13.50;75.54;98592.72;5024053;28;20405;-74
2023/09/23 09:05:40;;;;;;;3.22;1.65;;;;;;;13.58;75.36;98595.94;5027831;28;20499;-75
2023/09/23 09:08:06;;;;;;;3.78;1.83;;;;;;;13.59;75.34;98600.19;5022659;28;20153;-74
2023/09/23 09:10:32;;;;;;;2.75;1.38;;;;;;;13.66;75.55;98600.72;5023628;28;20034;-75
2023/09/23 09:13:01;;;;;;;4.82;1.60;;;;;;;13.71;75.80;98611.44;5025643;28;20025;-75
2023/09/23 09:15:27;;;;;;;1.65;1.40;;;;;;;13.76;75.20;98616.78;5027677;28;20025;-75
2023/09/23 09:17:53;;;;;;;3.20;1.52;;;;;;;13.79;75.09;98611.66;5029590;28;20098;-74
2023/09/23 09:20:18;;;;;;;3.90;1.70;;;;;;;13.73;74.52;98611.97;5009569;28;20610;-75
2023/09/23 09:22:45;;;;;;;3.92;1.60;;;;;;;13.82;75.22;98621.88;5026975;28;20132;-76
2023/09/23 09:25:11;;;;;;;4.13;1.83;;;;;;;13.76;75.99;98606.84;5024256;28;20052;-73
2023/09/23 09:27:37;;;;;;;6.57;1.60;;;;;;;13.91;75.21;98625.56;5026067;28;20091;-75
2023/09/23 09:30:04;;;;;;;5.95;1.95;;;;;;;14.00;74.70;98618.53;5029632;28;20631;-74
2023/09/23 09:32:30;;;;;;;3.38;1.50;;;;;;;14.03;74.87;98622.56;5020068;28;20080;-75
2023/09/23 09:35:03;;;;;;;2.53;1.45;;;;;;;14.03;74.28;98619.88;5028457;28;20160;-74
2023/09/23 09:37:30;;;;;;;2.63;1.30;;;;;;;14.00;74.57;98615.84;5031112;28;20474;-75
2023/09/23 09:39:57;;;;;;;2.15;1.38;;;;;;;14.12;73.88;98635.13;5029890;28;20028;-75
2023/09/23 09:42:30;;;;;;;6.32;1.98;;;;;;;14.10;73.91;98645.34;5025282;28;20033;-75
2023/09/23 09:44:56;;;;;;;3.42;1.67;;;;;;;14.16;74.59;98638.88;5027310;28;20029;-74
2023/09/23 09:47:23;;;;;;;3.50;1.45;;;;;;;14.27;74.34;98644.97;5004360;28;20029;-75
2023/09/23 09:49:57;;;;;;;2.22;1.70;;;;;;;14.36;73.37;98640.66;5026084;28;20406;-76
2023/09/23 09:52:26;;;;;;;2.22;1.25;;;;;;;14.44;74.49;98645.44;5023319;28;20117;-75
2023/09/23 09:54:54;;;;;;;4.00;1.55;;;;;;;14.46;74.11;98651.34;5012791;28;20490;-75
2023/09/23 09:57:26;;;;;;;4.15;1.58;;;;;;;14.33;73.64;98648.50;5026835;28;20025;-75
2023/09/23 10:00:00;;;;;;;6.63;1.60;;;;;;;14.43;73.59;98645.72;5012368;28;20037;-75
2023/09/23 10:02:27;;;;;;;6.00;1.30;;;;;;;14.48;72.85;98651.84;5006365;28;20053;-75
2023/09/23 10:04:53;;;;;;;3.15;1.48;;;;;;;14.48;72.93;98643.81;5019620;28;20449;-75
2023/09/23 10:07:22;;;;;;;2.75;1.50;;;;;;;14.52;72.90;98642.19;5009510;28;20127;-75
2023/09/23 10:09:53;;;;;;;3.60;1.75;;;;;;;14.55;73.37;98647.00;5007579;28;20053;-75
2023/09/23 10:12:24;;;;;;;5.30;2.00;;;;;;;14.64;73.45;98649.88;5027629;28;20097;-75
2023/09/23 10:14:57;;;;;;;4.25;1.80;;;;;;;14.77;74.17;98638.50;5007991;28;20520;-74
2023/09/23 10:17:33;;;;;;;4.35;1.15;;;;;;;14.87;72.59;98658.03;5029250;28;20605;-74
2023/09/23 10:20:01;;;;;;;2.60;1.60;;;;;;;14.82;72.45;98654.59;5009874;28;20036;-74
2023/09/23 10:22:29;;;;;;;9.68;1.92;;;;;;;14.80;71.42;98656.75;5026851;28;20073;-75
2023/09/23 10:25:04;;;;;;;1.92;1.10;;;;;;;14.90;71.73;98646.72;5031276;28;20075;-75
2023/09/23 10:27:30;;;;;;;3.35;1.15;;;;;;;15.13;71.77;98647.91;5022333;28;20033;-75
2023/09/23 10:29:55;;;;;;;2.50;1.50;;;;;;;15.11;70.63;98647.38;5020899;28;20112;-75
2023/09/23 10:32:21;;;;;;;2.72;1.50;;;;;;;15.06;70.42;98650.09;5023331;28;20033;-75
2023/09/23 10:34:53;;;;;;;2.13;1.20;;;;;;;14.94;70.00;98646.97;5026621;28;20045;-74
2023/09/23 10:37:30;;;;;;;1.67;1.30;;;;;;;15.05;70.73;98650.41;5020267;28;20343;-74
2023/09/23 10:40:03;;;;;;;2.92;1.33;;;;;;;15.10;69.28;98653.81;5022236;28;20021;-75
2023/09/23 10:42:33;;;;;;;3.20;1.38;;;;;;;15.13;69.27;98657.84;5026534;28;20041;-76
2023/09/23 10:45:01;;;;;;;3.60;1.33;;;;;;;14.99;70.16;98661.19;5025772;28;20111;-75
2023/09/23 10:47:27;;;;;;;1.92;1.33;;;;;;;14.96;69.29;98663.63;5022538;28;20036;-76
2023/09/23 10:49:53;;;;;;;3.28;1.10;;;;;;;14.92;69.69;98668.75;5025525;28;20048;-76
2023/09/23 10:52:19;;;;;;;5.40;1.52;;;;;;;15.01;69.26;98659.00;5022982;28;20022;-75
2023/09/23 10:54:46;;;;;;;8.65;1.50;;;;;;;15.05;69.55;98667.31;5023943;28;20036;-76
2023/09/23 10:57:12;;;;;;;3.95;1.40;;;;;;;15.08;68.97;98668.63;5026435;28;20025;-76
2023/09/23 10:59:39;;;;;;;3.80;1.88;;;;;;;15.10;69.45;98669.97;5028825;28;20091;-76
2023/09/23 11:02:05;;;;;;;4.13;1.30;;;;;;;15.10;69.39;98669.97;5029788;28;20041;-76
2023/09/23 11:04:30;;;;;;;3.97;1.40;;;;;;;15.19;70.52;98665.59;5030729;28;20113;-75
2023/09/23 11:06:56;;;;;;;3.80;1.42;;;;;;;15.14;69.56;98680.94;5021563;28;20119;-76
2023/09/23 11:09:22;;;;;;;2.78;1.23;;;;;;;15.22;69.70;98678.47;5023406;28;20044;-76
2023/09/23 11:11:48;;;;;;;7.57;1.70;;;;;;;15.25;69.25;98685.16;5028164;28;20033;-76
2023/09/23 11:14:14;;;;;;;2.53;1.27;;;;;;;15.17;68.92;98680.38;5021131;28;21031;-76
2023/09/23 11:16:44;;;;;;;3.92;2.45;;;;;;;15.12;70.15;98678.53;5029982;28;20025;-75
2023/09/23 11:19:09;;;;;;;2.97;1.70;;;;;;;15.31;68.24;98692.09;5009833;28;20029;-75
2023/09/23 11:21:46;;;;;;;3.65;1.63;;;;;;;15.51;69.91;98692.75;5010663;28;20048;-76
2023/09/23 11:24:14;;;;;;;6.63;1.55;;;;;;;15.56;69.44;98689.19;5029026;28;20537;-75
2023/09/23 11:26:41;;;;;;;2.25;1.83;;;;;;;15.61;69.04;98697.22;5027074;28;20037;-76
2023/09/23 11:29:09;;;;;;;2.88;1.30;;;;;;;15.72;68.51;98701.41;5029114;28;20123;-75
2023/09/23 11:31:35;;;;;;;6.15;1.17;;;;;;;15.81;68.34;98699.72;5029013;28;20034;-76
2023/09/23 11:34:01;;;;;;;2.55;1.33;;;;;;;15.95;68.95;98692.53;5027436;28;20029;-75
2023/09/23 11:36:27;;;;;;;2.63;1.48;;;;;;;15.97;67.62;98701.13;5029670;28;20030;-76